sensor_id;sensor_type;location;lat;lon;timestamp;temperature;humidity
7399;DHT22;3740;50.700;7.184;2023-06-22T00:01:27;21.30;99.90
7399;DHT22;3740;50.700;7.184;2023-06-22T00:03:53;21.40;99.90
7399;DHT22;3740;50.700;7.184;2023-06-22T00:06:18;21.40;99.90
7399;DHT22;3740;50.700;7.184;2023-06-22T00:08:44;21.40;99.90
7399;DHT22;3740;50.700;7.184;2023-06-22T00:11:10;21.40;99.90
7399;DHT22;3740;50.700;7.184;2023-06-22T00:13:35;21.30;99.90
7399;DHT22;3740;50.700;7.184;2023-06-22T00:16:01;21.40;99.90
7399;DHT22;3740;50.700;7.184;2023-06-22T00:18:27;21.30;99.90
7399;DHT22;3740;50.700;7.184;2023-06-22T00:20:57;21.30;99.90
7399;DHT22;3740;50.700;7.184;2023-06-22T00:23:24;21.30;99.90
7399;DHT22;3740;50.700;7.184;2023-06-22T00:25:49;21.30;99.90
7399;DHT22;3740;50.700;7.184;2023-06-22T00:28:15;21.30;99.90
7399;DHT22;3740;50.700;7.184;2023-06-22T00:30:41;21.30;99.90
7399;DHT22;3740;50.700;7.184;2023-06-22T00:33:06;21.40;99.90
7399;DHT22;3740;50.700;7.184;2023-06-22T00:35:33;21.30;99.90
7399;DHT22;3740;50.700;7.184;2023-06-22T00:38:00;21.30;99.90
7399;DHT22;3740;50.700;7.184;2023-06-22T00:40:32;21.30;99.90
7399;DHT22;3740;50.700;7.184;2023-06-22T00:42:59;21.40;99.90
7399;DHT22;3740;50.700;7.184;2023-06-22T00:45:25;21.40;99.90
7399;DHT22;3740;50.700;7.184;2023-06-22T00:47:53;21.30;99.90
7399;DHT22;3740;50.700;7.184;2023-06-22T00:50:20;21.30;99.90
7399;DHT22;3740;50.700;7.184;2023-06-22T00:52:55;21.30;99.90
7399;DHT22;3740;50.700;7.184;2023-06-22T00:55:22;21.30;99.90
7399;DHT22;3740;50.700;7.184;2023-06-22T00:57:48;21.30;99.90
7399;DHT22;3740;50.700;7.184;2023-06-22T01:00:15;21.30;99.90
7399;DHT22;3740;50.700;7.184;2023-06-22T01:02:43;21.30;99.90
7399;DHT22;3740;50.700;7.184;2023-06-22T01:05:14;21.30;99.90
7399;DHT22;3740;50.700;7.184;2023-06-22T01:10:54;21.30;99.90
7399;DHT22;3740;50.700;7.184;2023-06-22T01:13:56;21.30;99.90
7399;DHT22;3740;50.700;7.184;2023-06-22T01:16:30;21.30;99.90
7399;DHT22;3740;50.700;7.184;2023-06-22T01:18:57;21.30;99.90
7399;DHT22;3740;50.700;7.184;2023-06-22T01:21:28;21.30;99.90
7399;DHT22;3740;50.700;7.184;2023-06-22T01:29:43;21.30;99.90
7399;DHT22;3740;50.700;7.184;2023-06-22T01:32:10;21.30;99.90
7399;DHT22;3740;50.700;7.184;2023-06-22T01:34:38;21.30;99.90
7399;DHT22;3740;50.700;7.184;2023-06-22T01:37:05;21.40;99.90
7399;DHT22;3740;50.700;7.184;2023-06-22T01:39:32;21.40;99.90
7399;DHT22;3740;50.700;7.184;2023-06-22T01:41:58;21.30;99.90
7399;DHT22;3740;50.700;7.184;2023-06-22T01:44:25;21.40;99.90
7399;DHT22;3740;50.700;7.184;2023-06-22T01:46:52;21.30;99.90
7399;DHT22;3740;50.700;7.184;2023-06-22T01:49:18;21.30;99.90
7399;DHT22;3740;50.700;7.184;2023-06-22T01:51:43;21.30;99.90
7399;DHT22;3740;50.700;7.184;2023-06-22T01:54:09;21.30;99.90
7399;DHT22;3740;50.700;7.184;2023-06-22T01:56:35;21.30;99.90
7399;DHT22;3740;50.700;7.184;2023-06-22T01:59:09;21.30;99.90
7399;DHT22;3740;50.700;7.184;2023-06-22T02:01:43;21.30;99.90
7399;DHT22;3740;50.700;7.184;2023-06-22T02:04:13;21.30;99.90
7399;DHT22;3740;50.700;7.184;2023-06-22T02:06:43;21.30;99.90
7399;DHT22;3740;50.700;7.184;2023-06-22T02:09:14;21.30;99.90
7399;DHT22;3740;50.700;7.184;2023-06-22T02:11:43;21.30;99.90
7399;DHT22;3740;50.700;7.184;2023-06-22T02:14:10;21.30;99.90
7399;DHT22;3740;50.700;7.184;2023-06-22T02:16:36;21.20;99.90
7399;DHT22;3740;50.700;7.184;2023-06-22T02:19:03;21.20;99.90
7399;DHT22;3740;50.700;7.184;2023-06-22T02:21:29;21.20;99.90
7399;DHT22;3740;50.700;7.184;2023-06-22T02:23:55;21.20;99.90
7399;DHT22;3740;50.700;7.184;2023-06-22T02:26:21;21.20;99.90
7399;DHT22;3740;50.700;7.184;2023-06-22T02:28:47;21.20;99.90
7399;DHT22;3740;50.700;7.184;2023-06-22T02:31:13;21.20;99.90
7399;DHT22;3740;50.700;7.184;2023-06-22T02:33:38;21.20;99.90
7399;DHT22;3740;50.700;7.184;2023-06-22T02:36:04;21.20;99.90
7399;DHT22;3740;50.700;7.184;2023-06-22T02:38:33;21.20;99.90
7399;DHT22;3740;50.700;7.184;2023-06-22T02:40:59;21.20;99.90
7399;DHT22;3740;50.700;7.184;2023-06-22T02:43:25;21.20;99.90
7399;DHT22;3740;50.700;7.184;2023-06-22T02:45:50;21.20;99.90
7399;DHT22;3740;50.700;7.184;2023-06-22T02:48:16;21.20;99.90
7399;DHT22;3740;50.700;7.184;2023-06-22T02:50:42;21.20;99.90
7399;DHT22;3740;50.700;7.184;2023-06-22T02:53:07;21.20;99.90
7399;DHT22;3740;50.700;7.184;2023-06-22T02:55:33;21.20;99.90
7399;DHT22;3740;50.700;7.184;2023-06-22T02:57:58;21.10;99.90
7399;DHT22;3740;50.700;7.184;2023-06-22T03:00:25;21.20;99.90
7399;DHT22;3740;50.700;7.184;2023-06-22T03:02:55;21.20;99.90
7399;DHT22;3740;50.700;7.184;2023-06-22T03:05:21;21.20;99.90
7399;DHT22;3740;50.700;7.184;2023-06-22T03:07:47;21.20;99.90
7399;DHT22;3740;50.700;7.184;2023-06-22T03:10:14;21.20;99.90
7399;DHT22;3740;50.700;7.184;2023-06-22T03:12:40;21.20;99.90
7399;DHT22;3740;50.700;7.184;2023-06-22T03:15:07;21.20;99.90
7399;DHT22;3740;50.700;7.184;2023-06-22T03:17:34;21.10;99.90
7399;DHT22;3740;50.700;7.184;2023-06-22T03:20:01;21.10;99.90
7399;DHT22;3740;50.700;7.184;2023-06-22T03:22:31;21.10;99.90
7399;DHT22;3740;50.700;7.184;2023-06-22T03:24:57;21.10;99.90
7399;DHT22;3740;50.700;7.184;2023-06-22T03:27:23;21.20;99.90
7399;DHT22;3740;50.700;7.184;2023-06-22T03:29:48;21.10;99.90
7399;DHT22;3740;50.700;7.184;2023-06-22T03:32:14;21.10;99.90
7399;DHT22;3740;50.700;7.184;2023-06-22T03:34:39;21.20;99.90
7399;DHT22;3740;50.700;7.184;2023-06-22T03:37:05;21.10;99.90
7399;DHT22;3740;50.700;7.184;2023-06-22T03:39:31;21.10;99.90
7399;DHT22;3740;50.700;7.184;2023-06-22T03:41:57;21.10;99.90
7399;DHT22;3740;50.700;7.184;2023-06-22T03:44:22;21.10;99.90
7399;DHT22;3740;50.700;7.184;2023-06-22T03:46:48;21.10;99.90
7399;DHT22;3740;50.700;7.184;2023-06-22T03:49:13;21.10;99.90
7399;DHT22;3740;50.700;7.184;2023-06-22T03:51:39;21.10;99.90
7399;DHT22;3740;50.700;7.184;2023-06-22T03:54:04;21.10;99.90
7399;DHT22;3740;50.700;7.184;2023-06-22T03:56:30;21.10;99.90
7399;DHT22;3740;50.700;7.184;2023-06-22T03:58:56;21.10;99.90
7399;DHT22;3740;50.700;7.184;2023-06-22T04:01:22;21.10;99.90
7399;DHT22;3740;50.700;7.184;2023-06-22T04:03:48;21.10;99.90
7399;DHT22;3740;50.700;7.184;2023-06-22T04:06:15;21.10;99.90
7399;DHT22;3740;50.700;7.184;2023-06-22T04:08:40;21.20;99.90
7399;DHT22;3740;50.700;7.184;2023-06-22T04:11:06;21.20;99.90
7399;DHT22;3740;50.700;7.184;2023-06-22T04:13:31;21.20;99.90
7399;DHT22;3740;50.700;7.184;2023-06-22T04:15:57;21.20;99.90
7399;DHT22;3740;50.700;7.184;2023-06-22T04:18:23;21.20;99.90
7399;DHT22;3740;50.700;7.184;2023-06-22T04:20:49;21.20;99.90
7399;DHT22;3740;50.700;7.184;2023-06-22T04:23:14;21.20;99.90
7399;DHT22;3740;50.700;7.184;2023-06-22T04:25:40;21.30;99.90
7399;DHT22;3740;50.700;7.184;2023-06-22T04:28:05;21.20;99.90
7399;DHT22;3740;50.700;7.184;2023-06-22T04:30:37;21.30;99.90
7399;DHT22;3740;50.700;7.184;2023-06-22T04:33:14;21.30;99.90
7399;DHT22;3740;50.700;7.184;2023-06-22T04:35:40;21.30;99.90
7399;DHT22;3740;50.700;7.184;2023-06-22T04:38:12;21.30;99.90
7399;DHT22;3740;50.700;7.184;2023-06-22T04:40:39;21.30;99.90
7399;DHT22;3740;50.700;7.184;2023-06-22T04:43:05;21.20;99.90
7399;DHT22;3740;50.700;7.184;2023-06-22T04:45:32;21.20;99.90
7399;DHT22;3740;50.700;7.184;2023-06-22T04:47:58;21.20;99.90
7399;DHT22;3740;50.700;7.184;2023-06-22T04:50:24;21.20;99.90
7399;DHT22;3740;50.700;7.184;2023-06-22T04:52:50;21.30;99.90
7399;DHT22;3740;50.700;7.184;2023-06-22T04:55:16;21.30;99.90
7399;DHT22;3740;50.700;7.184;2023-06-22T04:57:44;21.30;99.90
7399;DHT22;3740;50.700;7.184;2023-06-22T05:00:18;21.30;99.90
7399;DHT22;3740;50.700;7.184;2023-06-22T05:02:45;21.30;99.90
7399;DHT22;3740;50.700;7.184;2023-06-22T05:05:15;21.30;99.90
7399;DHT22;3740;50.700;7.184;2023-06-22T05:07:47;21.40;99.90
7399;DHT22;3740;50.700;7.184;2023-06-22T05:10:21;21.40;99.90
7399;DHT22;3740;50.700;7.184;2023-06-22T05:12:46;21.40;99.90
7399;DHT22;3740;50.700;7.184;2023-06-22T05:15:12;21.40;99.90
7399;DHT22;3740;50.700;7.184;2023-06-22T05:17:38;21.40;99.90
7399;DHT22;3740;50.700;7.184;2023-06-22T05:20:13;21.40;99.90
7399;DHT22;3740;50.700;7.184;2023-06-22T05:22:39;21.40;99.90
7399;DHT22;3740;50.700;7.184;2023-06-22T05:25:09;21.50;99.90
7399;DHT22;3740;50.700;7.184;2023-06-22T05:27:35;21.50;99.90
7399;DHT22;3740;50.700;7.184;2023-06-22T05:30:06;21.50;99.90
7399;DHT22;3740;50.700;7.184;2023-06-22T05:32:32;21.60;99.90
7399;DHT22;3740;50.700;7.184;2023-06-22T05:34:57;21.60;99.90
7399;DHT22;3740;50.700;7.184;2023-06-22T05:37:23;21.60;99.90
7399;DHT22;3740;50.700;7.184;2023-06-22T05:39:48;21.60;99.90
7399;DHT22;3740;50.700;7.184;2023-06-22T05:42:14;21.70;99.90
7399;DHT22;3740;50.700;7.184;2023-06-22T05:44:39;21.70;99.90
7399;DHT22;3740;50.700;7.184;2023-06-22T05:47:06;21.80;99.90
7399;DHT22;3740;50.700;7.184;2023-06-22T05:49:31;21.80;99.90
7399;DHT22;3740;50.700;7.184;2023-06-22T05:51:58;21.80;99.90
7399;DHT22;3740;50.700;7.184;2023-06-22T05:54:25;21.90;99.90
7399;DHT22;3740;50.700;7.184;2023-06-22T05:56:50;21.80;99.90
7399;DHT22;3740;50.700;7.184;2023-06-22T05:59:16;21.90;99.90
7399;DHT22;3740;50.700;7.184;2023-06-22T06:01:41;21.90;99.90
7399;DHT22;3740;50.700;7.184;2023-06-22T06:04:07;21.90;99.90
7399;DHT22;3740;50.700;7.184;2023-06-22T06:06:35;22.00;99.90
7399;DHT22;3740;50.700;7.184;2023-06-22T06:09:06;22.10;99.90
7399;DHT22;3740;50.700;7.184;2023-06-22T06:11:33;22.20;99.90
7399;DHT22;3740;50.700;7.184;2023-06-22T06:13:58;22.30;99.90
7399;DHT22;3740;50.700;7.184;2023-06-22T06:16:24;22.30;99.90
7399;DHT22;3740;50.700;7.184;2023-06-22T06:18:50;22.40;99.90
7399;DHT22;3740;50.700;7.184;2023-06-22T06:21:16;22.40;99.90
7399;DHT22;3740;50.700;7.184;2023-06-22T06:23:41;22.50;99.90
7399;DHT22;3740;50.700;7.184;2023-06-22T06:26:08;22.40;99.90
7399;DHT22;3740;50.700;7.184;2023-06-22T06:28:35;22.50;99.90
7399;DHT22;3740;50.700;7.184;2023-06-22T06:31:00;22.60;99.90
7399;DHT22;3740;50.700;7.184;2023-06-22T06:33:26;22.50;99.90
7399;DHT22;3740;50.700;7.184;2023-06-22T06:35:51;22.50;99.90
7399;DHT22;3740;50.700;7.184;2023-06-22T06:38:17;22.40;99.90
7399;DHT22;3740;50.700;7.184;2023-06-22T06:40:43;22.60;99.90
7399;DHT22;3740;50.700;7.184;2023-06-22T06:43:09;22.60;99.90
7399;DHT22;3740;50.700;7.184;2023-06-22T06:45:35;22.60;99.90
7399;DHT22;3740;50.700;7.184;2023-06-22T06:48:00;22.60;99.90
7399;DHT22;3740;50.700;7.184;2023-06-22T06:50:26;22.50;99.90
7399;DHT22;3740;50.700;7.184;2023-06-22T06:52:52;22.60;99.90
7399;DHT22;3740;50.700;7.184;2023-06-22T06:55:17;22.70;99.90
7399;DHT22;3740;50.700;7.184;2023-06-22T06:57:44;22.80;99.90
7399;DHT22;3740;50.700;7.184;2023-06-22T07:00:14;22.90;99.90
7399;DHT22;3740;50.700;7.184;2023-06-22T07:02:41;22.80;99.90
7399;DHT22;3740;50.700;7.184;2023-06-22T07:05:08;22.80;99.90
7399;DHT22;3740;50.700;7.184;2023-06-22T07:07:34;22.90;99.90
7399;DHT22;3740;50.700;7.184;2023-06-22T07:09:59;22.90;99.90
7399;DHT22;3740;50.700;7.184;2023-06-22T07:12:25;23.00;99.90
7399;DHT22;3740;50.700;7.184;2023-06-22T07:14:52;23.10;99.90
7399;DHT22;3740;50.700;7.184;2023-06-22T07:17:18;23.20;99.90
7399;DHT22;3740;50.700;7.184;2023-06-22T07:19:43;23.20;99.90
7399;DHT22;3740;50.700;7.184;2023-06-22T07:22:09;23.20;99.90
7399;DHT22;3740;50.700;7.184;2023-06-22T07:24:35;23.20;99.90
7399;DHT22;3740;50.700;7.184;2023-06-22T07:27:00;23.30;99.90
7399;DHT22;3740;50.700;7.184;2023-06-22T07:29:27;23.30;99.90
7399;DHT22;3740;50.700;7.184;2023-06-22T07:31:53;23.40;99.90
7399;DHT22;3740;50.700;7.184;2023-06-22T07:34:18;23.50;99.90
7399;DHT22;3740;50.700;7.184;2023-06-22T07:36:45;23.40;99.90
7399;DHT22;3740;50.700;7.184;2023-06-22T07:39:11;23.40;99.90
7399;DHT22;3740;50.700;7.184;2023-06-22T07:41:39;23.30;99.90
7399;DHT22;3740;50.700;7.184;2023-06-22T07:44:06;23.20;99.90
7399;DHT22;3740;50.700;7.184;2023-06-22T07:46:32;23.10;99.90
7399;DHT22;3740;50.700;7.184;2023-06-22T07:48:58;23.20;99.90
7399;DHT22;3740;50.700;7.184;2023-06-22T07:51:25;23.20;99.90
7399;DHT22;3740;50.700;7.184;2023-06-22T07:53:50;23.20;99.90
7399;DHT22;3740;50.700;7.184;2023-06-22T07:56:16;23.20;99.90
7399;DHT22;3740;50.700;7.184;2023-06-22T07:58:45;23.20;99.90
7399;DHT22;3740;50.700;7.184;2023-06-22T08:01:12;23.20;99.90
7399;DHT22;3740;50.700;7.184;2023-06-22T08:03:37;23.30;99.90
7399;DHT22;3740;50.700;7.184;2023-06-22T08:06:05;23.30;99.90
7399;DHT22;3740;50.700;7.184;2023-06-22T08:08:31;23.20;99.90
7399;DHT22;3740;50.700;7.184;2023-06-22T08:10:57;23.30;99.90
7399;DHT22;3740;50.700;7.184;2023-06-22T08:13:23;23.30;99.90
7399;DHT22;3740;50.700;7.184;2023-06-22T08:15:48;23.30;99.90
7399;DHT22;3740;50.700;7.184;2023-06-22T08:18:14;23.40;99.90
7399;DHT22;3740;50.700;7.184;2023-06-22T08:20:40;23.50;99.90
7399;DHT22;3740;50.700;7.184;2023-06-22T08:23:05;23.50;99.90
7399;DHT22;3740;50.700;7.184;2023-06-22T08:25:35;23.60;99.90
7399;DHT22;3740;50.700;7.184;2023-06-22T08:28:01;23.70;99.90
7399;DHT22;3740;50.700;7.184;2023-06-22T08:30:27;23.70;99.90
7399;DHT22;3740;50.700;7.184;2023-06-22T08:32:53;23.70;99.90
7399;DHT22;3740;50.700;7.184;2023-06-22T08:35:20;23.80;99.90
7399;DHT22;3740;50.700;7.184;2023-06-22T08:37:46;24.10;99.90
7399;DHT22;3740;50.700;7.184;2023-06-22T08:40:17;24.10;99.90
7399;DHT22;3740;50.700;7.184;2023-06-22T08:42:43;24.20;99.90
7399;DHT22;3740;50.700;7.184;2023-06-22T08:45:09;24.20;99.90
7399;DHT22;3740;50.700;7.184;2023-06-22T08:47:34;24.30;99.90
7399;DHT22;3740;50.700;7.184;2023-06-22T08:50:00;24.40;99.90
7399;DHT22;3740;50.700;7.184;2023-06-22T08:52:28;24.60;99.90
7399;DHT22;3740;50.700;7.184;2023-06-22T08:54:54;24.70;99.90
7399;DHT22;3740;50.700;7.184;2023-06-22T08:57:21;24.80;99.90
7399;DHT22;3740;50.700;7.184;2023-06-22T08:59:46;24.80;99.90
7399;DHT22;3740;50.700;7.184;2023-06-22T09:02:12;24.90;99.90
7399;DHT22;3740;50.700;7.184;2023-06-22T09:04:38;25.10;99.90
7399;DHT22;3740;50.700;7.184;2023-06-22T09:07:03;25.20;99.90
7399;DHT22;3740;50.700;7.184;2023-06-22T09:09:29;25.40;99.90
7399;DHT22;3740;50.700;7.184;2023-06-22T09:11:55;25.50;99.90
7399;DHT22;3740;50.700;7.184;2023-06-22T09:14:20;25.60;99.90
7399;DHT22;3740;50.700;7.184;2023-06-22T09:16:46;25.60;99.90
7399;DHT22;3740;50.700;7.184;2023-06-22T09:19:11;25.70;99.90
7399;DHT22;3740;50.700;7.184;2023-06-22T09:21:37;25.80;99.90
7399;DHT22;3740;50.700;7.184;2023-06-22T09:24:03;25.90;99.90
7399;DHT22;3740;50.700;7.184;2023-06-22T09:26:28;26.00;99.90
7399;DHT22;3740;50.700;7.184;2023-06-22T09:28:54;26.00;99.90
7399;DHT22;3740;50.700;7.184;2023-06-22T09:31:20;26.10;99.90
7399;DHT22;3740;50.700;7.184;2023-06-22T09:33:54;26.10;99.90
7399;DHT22;3740;50.700;7.184;2023-06-22T09:36:21;26.10;99.90
7399;DHT22;3740;50.700;7.184;2023-06-22T09:38:48;26.20;99.90
7399;DHT22;3740;50.700;7.184;2023-06-22T09:41:14;26.20;99.90
7399;DHT22;3740;50.700;7.184;2023-06-22T09:43:39;26.30;99.90
7399;DHT22;3740;50.700;7.184;2023-06-22T09:46:05;26.30;99.90
7399;DHT22;3740;50.700;7.184;2023-06-22T09:48:32;26.30;99.90
7399;DHT22;3740;50.700;7.184;2023-06-22T09:50:57;26.20;99.90
7399;DHT22;3740;50.700;7.184;2023-06-22T09:53:23;26.10;99.90
7399;DHT22;3740;50.700;7.184;2023-06-22T09:55:49;26.00;99.90
7399;DHT22;3740;50.700;7.184;2023-06-22T09:58:14;25.90;99.90
7399;DHT22;3740;50.700;7.184;2023-06-22T10:00:40;25.80;99.90
7399;DHT22;3740;50.700;7.184;2023-06-22T10:03:06;25.70;99.90
7399;DHT22;3740;50.700;7.184;2023-06-22T10:05:32;25.60;99.90
7399;DHT22;3740;50.700;7.184;2023-06-22T10:07:58;25.50;99.90
7399;DHT22;3740;50.700;7.184;2023-06-22T10:10:23;25.50;99.90
7399;DHT22;3740;50.700;7.184;2023-06-22T10:12:55;25.40;99.90
7399;DHT22;3740;50.700;7.184;2023-06-22T10:15:22;25.40;99.90
7399;DHT22;3740;50.700;7.184;2023-06-22T10:17:47;25.30;99.90
7399;DHT22;3740;50.700;7.184;2023-06-22T10:20:13;25.20;99.90
7399;DHT22;3740;50.700;7.184;2023-06-22T10:22:40;25.10;99.90
7399;DHT22;3740;50.700;7.184;2023-06-22T10:25:06;25.00;99.90
7399;DHT22;3740;50.700;7.184;2023-06-22T10:27:32;25.00;99.90
7399;DHT22;3740;50.700;7.184;2023-06-22T10:29:57;24.80;99.90
7399;DHT22;3740;50.700;7.184;2023-06-22T10:32:23;24.80;99.90
7399;DHT22;3740;50.700;7.184;2023-06-22T10:34:49;24.70;99.90
7399;DHT22;3740;50.700;7.184;2023-06-22T10:37:14;24.60;99.90
7399;DHT22;3740;50.700;7.184;2023-06-22T10:39:40;24.60;99.90
7399;DHT22;3740;50.700;7.184;2023-06-22T10:42:05;24.50;99.90
7399;DHT22;3740;50.700;7.184;2023-06-22T10:44:31;24.50;99.90
7399;DHT22;3740;50.700;7.184;2023-06-22T10:46:57;24.40;99.90
7399;DHT22;3740;50.700;7.184;2023-06-22T10:49:22;24.30;99.90
7399;DHT22;3740;50.700;7.184;2023-06-22T10:51:48;24.30;99.90
7399;DHT22;3740;50.700;7.184;2023-06-22T10:54:13;24.10;99.90
7399;DHT22;3740;50.700;7.184;2023-06-22T10:56:40;24.00;99.90
7399;DHT22;3740;50.700;7.184;2023-06-22T10:59:05;23.80;99.90
7399;DHT22;3740;50.700;7.184;2023-06-22T11:01:31;23.70;99.90
7399;DHT22;3740;50.700;7.184;2023-06-22T11:03:58;23.20;99.90
7399;DHT22;3740;50.700;7.184;2023-06-22T11:06:24;22.90;99.90
7399;DHT22;3740;50.700;7.184;2023-06-22T11:08:49;22.50;99.90
7399;DHT22;3740;50.700;7.184;2023-06-22T11:11:15;22.30;99.90
7399;DHT22;3740;50.700;7.184;2023-06-22T11:13:43;22.30;99.90
7399;DHT22;3740;50.700;7.184;2023-06-22T11:16:09;22.40;99.90
7399;DHT22;3740;50.700;7.184;2023-06-22T11:18:35;22.40;99.90
7399;DHT22;3740;50.700;7.184;2023-06-22T11:21:01;22.40;99.90
7399;DHT22;3740;50.700;7.184;2023-06-22T11:23:26;22.40;99.90
7399;DHT22;3740;50.700;7.184;2023-06-22T11:25:54;22.40;99.90
7399;DHT22;3740;50.700;7.184;2023-06-22T11:28:20;22.60;99.90
7399;DHT22;3740;50.700;7.184;2023-06-22T11:30:45;22.70;99.90
7399;DHT22;3740;50.700;7.184;2023-06-22T11:33:11;22.80;99.90
7399;DHT22;3740;50.700;7.184;2023-06-22T11:35:37;23.00;99.90
7399;DHT22;3740;50.700;7.184;2023-06-22T11:38:02;23.30;99.90
7399;DHT22;3740;50.700;7.184;2023-06-22T11:40:29;23.50;99.90
7399;DHT22;3740;50.700;7.184;2023-06-22T11:42:55;23.70;99.90
7399;DHT22;3740;50.700;7.184;2023-06-22T11:45:20;23.90;99.90
7399;DHT22;3740;50.700;7.184;2023-06-22T11:47:46;24.10;99.90
7399;DHT22;3740;50.700;7.184;2023-06-22T11:50:12;24.20;99.90
7399;DHT22;3740;50.700;7.184;2023-06-22T11:52:37;24.20;99.90
7399;DHT22;3740;50.700;7.184;2023-06-22T11:55:03;23.90;99.90
7399;DHT22;3740;50.700;7.184;2023-06-22T11:57:32;23.80;99.90
7399;DHT22;3740;50.700;7.184;2023-06-22T11:59:58;23.60;99.90
7399;DHT22;3740;50.700;7.184;2023-06-22T12:02:24;23.50;99.90
7399;DHT22;3740;50.700;7.184;2023-06-22T12:04:49;23.40;99.90
7399;DHT22;3740;50.700;7.184;2023-06-22T12:07:18;23.30;99.90
7399;DHT22;3740;50.700;7.184;2023-06-22T12:09:43;23.10;99.90
7399;DHT22;3740;50.700;7.184;2023-06-22T12:12:09;23.00;99.90
7399;DHT22;3740;50.700;7.184;2023-06-22T12:14:35;22.90;99.90
7399;DHT22;3740;50.700;7.184;2023-06-22T12:17:00;22.90;99.90
7399;DHT22;3740;50.700;7.184;2023-06-22T12:19:26;22.90;99.90
7399;DHT22;3740;50.700;7.184;2023-06-22T12:21:51;22.90;99.90
7399;DHT22;3740;50.700;7.184;2023-06-22T12:24:17;23.00;99.90
7399;DHT22;3740;50.700;7.184;2023-06-22T12:26:43;23.10;99.90
7399;DHT22;3740;50.700;7.184;2023-06-22T12:29:08;23.10;99.90
7399;DHT22;3740;50.700;7.184;2023-06-22T12:31:35;23.40;99.90
7399;DHT22;3740;50.700;7.184;2023-06-22T12:34:02;23.80;99.90
7399;DHT22;3740;50.700;7.184;2023-06-22T12:36:27;24.30;99.90
7399;DHT22;3740;50.700;7.184;2023-06-22T12:38:53;25.30;99.90
7399;DHT22;3740;50.700;7.184;2023-06-22T12:41:19;26.60;99.90
7399;DHT22;3740;50.700;7.184;2023-06-22T12:43:45;27.00;99.90
7399;DHT22;3740;50.700;7.184;2023-06-22T12:46:10;27.20;99.90
7399;DHT22;3740;50.700;7.184;2023-06-22T12:48:36;27.50;99.90
7399;DHT22;3740;50.700;7.184;2023-06-22T12:51:07;27.50;99.90
7399;DHT22;3740;50.700;7.184;2023-06-22T12:53:33;27.30;99.90
7399;DHT22;3740;50.700;7.184;2023-06-22T12:55:58;27.50;99.90
7399;DHT22;3740;50.700;7.184;2023-06-22T12:58:24;27.60;99.90
7399;DHT22;3740;50.700;7.184;2023-06-22T13:00:50;27.50;99.90
7399;DHT22;3740;50.700;7.184;2023-06-22T13:03:15;27.40;99.90
7399;DHT22;3740;50.700;7.184;2023-06-22T13:05:41;27.40;99.90
7399;DHT22;3740;50.700;7.184;2023-06-22T13:08:06;27.50;99.90
7399;DHT22;3740;50.700;7.184;2023-06-22T13:10:33;27.70;99.90
7399;DHT22;3740;50.700;7.184;2023-06-22T13:12:59;28.10;99.90
7399;DHT22;3740;50.700;7.184;2023-06-22T13:15:27;28.50;99.90
7399;DHT22;3740;50.700;7.184;2023-06-22T13:17:54;28.70;99.90
7399;DHT22;3740;50.700;7.184;2023-06-22T13:20:19;29.20;99.90
7399;DHT22;3740;50.700;7.184;2023-06-22T13:22:45;29.80;99.90
7399;DHT22;3740;50.700;7.184;2023-06-22T13:25:11;30.00;99.90
7399;DHT22;3740;50.700;7.184;2023-06-22T13:27:41;29.80;99.90
7399;DHT22;3740;50.700;7.184;2023-06-22T13:30:07;29.30;99.90
7399;DHT22;3740;50.700;7.184;2023-06-22T13:32:33;28.90;99.90
7399;DHT22;3740;50.700;7.184;2023-06-22T13:34:59;28.50;99.90
7399;DHT22;3740;50.700;7.184;2023-06-22T13:37:25;28.20;99.90
7399;DHT22;3740;50.700;7.184;2023-06-22T13:39:51;28.20;99.90
7399;DHT22;3740;50.700;7.184;2023-06-22T13:42:16;28.40;99.90
7399;DHT22;3740;50.700;7.184;2023-06-22T13:44:42;28.50;99.90
7399;DHT22;3740;50.700;7.184;2023-06-22T13:47:08;28.80;99.90
7399;DHT22;3740;50.700;7.184;2023-06-22T13:49:33;29.20;99.90
7399;DHT22;3740;50.700;7.184;2023-06-22T13:51:59;29.10;99.90
7399;DHT22;3740;50.700;7.184;2023-06-22T13:54:25;28.80;99.90
7399;DHT22;3740;50.700;7.184;2023-06-22T13:56:50;28.50;99.90
7399;DHT22;3740;50.700;7.184;2023-06-22T13:59:16;28.50;99.90
7399;DHT22;3740;50.700;7.184;2023-06-22T14:01:41;28.20;99.90
7399;DHT22;3740;50.700;7.184;2023-06-22T14:04:08;27.90;99.90
7399;DHT22;3740;50.700;7.184;2023-06-22T14:06:34;27.60;99.90
7399;DHT22;3740;50.700;7.184;2023-06-22T14:08:59;27.30;99.90
7399;DHT22;3740;50.700;7.184;2023-06-22T14:11:25;26.70;99.90
7399;DHT22;3740;50.700;7.184;2023-06-22T14:13:51;26.50;99.90
7399;DHT22;3740;50.700;7.184;2023-06-22T14:16:17;26.20;99.90
7399;DHT22;3740;50.700;7.184;2023-06-22T14:18:42;26.00;99.90
7399;DHT22;3740;50.700;7.184;2023-06-22T14:21:08;25.70;99.90
7399;DHT22;3740;50.700;7.184;2023-06-22T14:23:34;25.50;99.90
7399;DHT22;3740;50.700;7.184;2023-06-22T14:25:59;25.30;99.90
7399;DHT22;3740;50.700;7.184;2023-06-22T14:28:25;25.20;99.90
7399;DHT22;3740;50.700;7.184;2023-06-22T14:30:50;25.00;99.90
7399;DHT22;3740;50.700;7.184;2023-06-22T14:33:16;24.90;99.90
7399;DHT22;3740;50.700;7.184;2023-06-22T14:35:41;24.80;99.90
7399;DHT22;3740;50.700;7.184;2023-06-22T14:38:07;24.40;99.90
7399;DHT22;3740;50.700;7.184;2023-06-22T14:40:32;24.00;99.90
7399;DHT22;3740;50.700;7.184;2023-06-22T14:42:58;23.80;99.90
7399;DHT22;3740;50.700;7.184;2023-06-22T14:45:24;23.70;99.90
7399;DHT22;3740;50.700;7.184;2023-06-22T14:47:49;23.50;99.90
7399;DHT22;3740;50.700;7.184;2023-06-22T14:50:16;23.50;99.90
7399;DHT22;3740;50.700;7.184;2023-06-22T14:52:42;23.40;99.90
7399;DHT22;3740;50.700;7.184;2023-06-22T14:55:08;23.40;99.90
7399;DHT22;3740;50.700;7.184;2023-06-22T14:57:33;23.40;99.90
7399;DHT22;3740;50.700;7.184;2023-06-22T14:59:59;23.30;99.90
7399;DHT22;3740;50.700;7.184;2023-06-22T15:02:26;23.20;99.90
7399;DHT22;3740;50.700;7.184;2023-06-22T15:04:52;23.10;99.90
7399;DHT22;3740;50.700;7.184;2023-06-22T15:07:18;22.70;99.90
7399;DHT22;3740;50.700;7.184;2023-06-22T15:09:45;22.30;99.90
7399;DHT22;3740;50.700;7.184;2023-06-22T15:12:11;22.30;99.90
7399;DHT22;3740;50.700;7.184;2023-06-22T15:14:46;22.20;99.90
7399;DHT22;3740;50.700;7.184;2023-06-22T15:17:11;22.10;99.90
7399;DHT22;3740;50.700;7.184;2023-06-22T15:19:39;22.00;99.90
7399;DHT22;3740;50.700;7.184;2023-06-22T15:22:06;22.10;99.90
7399;DHT22;3740;50.700;7.184;2023-06-22T15:24:33;22.10;99.90
7399;DHT22;3740;50.700;7.184;2023-06-22T15:26:58;22.10;99.90
7399;DHT22;3740;50.700;7.184;2023-06-22T15:29:24;22.10;99.90
7399;DHT22;3740;50.700;7.184;2023-06-22T15:31:51;22.10;99.90
7399;DHT22;3740;50.700;7.184;2023-06-22T15:34:17;22.10;99.90
7399;DHT22;3740;50.700;7.184;2023-06-22T15:36:42;22.10;99.90
7399;DHT22;3740;50.700;7.184;2023-06-22T15:39:08;22.00;99.90
7399;DHT22;3740;50.700;7.184;2023-06-22T15:41:33;22.00;99.90
7399;DHT22;3740;50.700;7.184;2023-06-22T15:43:59;22.00;99.90
7399;DHT22;3740;50.700;7.184;2023-06-22T15:46:24;22.00;99.90
7399;DHT22;3740;50.700;7.184;2023-06-22T15:48:50;22.00;99.90
7399;DHT22;3740;50.700;7.184;2023-06-22T15:51:15;22.00;99.90
7399;DHT22;3740;50.700;7.184;2023-06-22T15:53:41;21.90;99.90
7399;DHT22;3740;50.700;7.184;2023-06-22T15:56:07;21.90;99.90
7399;DHT22;3740;50.700;7.184;2023-06-22T15:58:38;21.90;99.90
7399;DHT22;3740;50.700;7.184;2023-06-22T16:01:05;21.80;99.90
7399;DHT22;3740;50.700;7.184;2023-06-22T16:03:31;21.80;99.90
7399;DHT22;3740;50.700;7.184;2023-06-22T16:05:56;21.70;99.90